LPMT

Montijo Airport

Montijo, Portugal
TAF LPMT 181103Z 1812/1912 35012KT 9999 FEW020 PROB40 TEMPO 1812/1816 6000 -SHRA SCT009 BKN014 FEW020TCU
Issued Valid From Valid To
Oct-18 @ 11:03 UTC
(51 minutes ago)
Oct-18 @ 12:00 UTC
(in 6 minutes)
Oct-19 @ 12:00 UTC
(in 24 hours)
Oct-18 @ 12:00 to Oct-19 @ 12:00
TAF LPMT 181103Z 1812/1912 35012KT 9999 FEW020
Wind Visibility Clouds
350° at 12 knots 10,000+ meters
  • Few at 2,000' AGL
Temporary  (Probability 40%) Oct-18 @ 12:00 to Oct-18 @ 16:00
PROB40 TEMPO 1812/1816 6000 -SHRA SCT009 BKN014 FEW020TCU
Visibility Clouds Conditions
6,003 meters
  • Scattered at 900' AGL
  • Broken at 1,400' AGL
  • Few at 2,000' AGL
  • Light Rain
TAF LPMT 181103Z 1812/1912 35012KT 9999 FEW020 PROB40 TEMPO 1812/1816 6000 -SHRA SCT009 BKN014 FEW020TCU
Issued Oct-18 @ 11:03 UTC
(51 minutes ago)
Valid From Oct-18 @ 12:00 UTC
(in 6 minutes)
Valid To Oct-19 @ 12:00 UTC
(in 24 hours)
Oct-18 @ 12:00 - Oct-19 @ 12:00
Wind Visibility
350° at 12 knots 10,000+ meters
Clouds
  • Few at 2,000' AGL
Probability 40% Temporary Oct-18 @ 12:00 - Oct-18 @ 16:00
Clouds
  • Scattered at 900' AGL
  • Broken at 1,400' AGL
  • Few at 2,000' AGL
Conditions
  • Light Rain